sensor_id;sensor_type;location;lat;lon;timestamp;temperature;humidity
12413;DHT22;13877;18.896;-99.222;2023-02-03T00:02:23;26.00;27.90
12413;DHT22;13877;18.896;-99.222;2023-02-03T00:04:51;25.90;28.70
12413;DHT22;13877;18.896;-99.222;2023-02-03T00:07:18;25.70;29.10
12413;DHT22;13877;18.896;-99.222;2023-02-03T00:09:46;25.60;29.60
12413;DHT22;13877;18.896;-99.222;2023-02-03T00:12:13;25.30;29.10
12413;DHT22;13877;18.896;-99.222;2023-02-03T00:14:40;25.20;29.70
12413;DHT22;13877;18.896;-99.222;2023-02-03T00:17:07;25.10;29.40
12413;DHT22;13877;18.896;-99.222;2023-02-03T00:19:34;25.10;30.00
12413;DHT22;13877;18.896;-99.222;2023-02-03T00:22:01;25.00;30.40
12413;DHT22;13877;18.896;-99.222;2023-02-03T00:24:28;24.70;31.20
12413;DHT22;13877;18.896;-99.222;2023-02-03T00:26:55;24.60;31.40
12413;DHT22;13877;18.896;-99.222;2023-02-03T00:29:22;24.40;31.80
12413;DHT22;13877;18.896;-99.222;2023-02-03T00:31:52;24.30;32.00
12413;DHT22;13877;18.896;-99.222;2023-02-03T00:34:20;24.20;32.20
12413;DHT22;13877;18.896;-99.222;2023-02-03T00:36:47;24.00;31.80
12413;DHT22;13877;18.896;-99.222;2023-02-03T00:39:15;23.80;32.70
12413;DHT22;13877;18.896;-99.222;2023-02-03T00:41:42;23.40;33.50
12413;DHT22;13877;18.896;-99.222;2023-02-03T00:44:09;23.20;33.70
12413;DHT22;13877;18.896;-99.222;2023-02-03T00:46:36;22.90;34.00
12413;DHT22;13877;18.896;-99.222;2023-02-03T00:49:04;22.90;32.60
12413;DHT22;13877;18.896;-99.222;2023-02-03T00:51:31;22.90;32.30
12413;DHT22;13877;18.896;-99.222;2023-02-03T00:53:59;22.80;32.30
12413;DHT22;13877;18.896;-99.222;2023-02-03T00:56:26;22.80;32.50
12413;DHT22;13877;18.896;-99.222;2023-02-03T00:58:53;22.80;32.50
12413;DHT22;13877;18.896;-99.222;2023-02-03T01:01:20;22.80;32.70
12413;DHT22;13877;18.896;-99.222;2023-02-03T01:03:46;22.80;32.80
12413;DHT22;13877;18.896;-99.222;2023-02-03T01:06:18;22.80;33.20
12413;DHT22;13877;18.896;-99.222;2023-02-03T01:08:48;22.60;34.50
12413;DHT22;13877;18.896;-99.222;2023-02-03T01:11:22;22.50;35.00
12413;DHT22;13877;18.896;-99.222;2023-02-03T01:13:52;22.40;35.30
12413;DHT22;13877;18.896;-99.222;2023-02-03T01:16:22;22.40;35.80
12413;DHT22;13877;18.896;-99.222;2023-02-03T01:18:53;22.40;35.20
12413;DHT22;13877;18.896;-99.222;2023-02-03T01:21:23;22.40;35.80
12413;DHT22;13877;18.896;-99.222;2023-02-03T01:23:55;22.70;36.00
12413;DHT22;13877;18.896;-99.222;2023-02-03T01:26:23;22.70;36.20
12413;DHT22;13877;18.896;-99.222;2023-02-03T01:28:56;22.80;36.20
12413;DHT22;13877;18.896;-99.222;2023-02-03T01:31:33;22.70;36.50
12413;DHT22;13877;18.896;-99.222;2023-02-03T01:34:03;22.70;36.60
12413;DHT22;13877;18.896;-99.222;2023-02-03T01:36:31;22.70;36.70
12413;DHT22;13877;18.896;-99.222;2023-02-03T01:39:00;22.60;36.70
12413;DHT22;13877;18.896;-99.222;2023-02-03T01:41:31;22.50;36.90
12413;DHT22;13877;18.896;-99.222;2023-02-03T01:44:01;22.50;36.70
12413;DHT22;13877;18.896;-99.222;2023-02-03T01:46:35;22.50;36.60
12413;DHT22;13877;18.896;-99.222;2023-02-03T01:49:23;22.50;36.70
12413;DHT22;13877;18.896;-99.222;2023-02-03T01:51:51;22.40;36.90
12413;DHT22;13877;18.896;-99.222;2023-02-03T01:54:25;22.40;36.90
12413;DHT22;13877;18.896;-99.222;2023-02-03T01:56:55;22.30;36.70
12413;DHT22;13877;18.896;-99.222;2023-02-03T01:59:25;22.30;36.80
12413;DHT22;13877;18.896;-99.222;2023-02-03T02:01:53;22.20;36.80
12413;DHT22;13877;18.896;-99.222;2023-02-03T02:04:21;22.30;36.70
12413;DHT22;13877;18.896;-99.222;2023-02-03T02:06:51;22.20;37.20
12413;DHT22;13877;18.896;-99.222;2023-02-03T02:09:17;22.20;36.50
12413;DHT22;13877;18.896;-99.222;2023-02-03T02:11:45;22.10;36.40
12413;DHT22;13877;18.896;-99.222;2023-02-03T02:14:13;22.10;36.50
12413;DHT22;13877;18.896;-99.222;2023-02-03T02:17:02;22.10;36.50
12413;DHT22;13877;18.896;-99.222;2023-02-03T02:20:50;22.10;36.40
12413;DHT22;13877;18.896;-99.222;2023-02-03T02:22:59;22.00;36.10
12413;DHT22;13877;18.896;-99.222;2023-02-03T02:37:12;22.00;35.90
12413;DHT22;13877;18.896;-99.222;2023-02-03T02:40:07;21.90;36.00
12413;DHT22;13877;18.896;-99.222;2023-02-03T02:45:38;22.00;35.90
12413;DHT22;13877;18.896;-99.222;2023-02-03T02:50:50;22.00;35.70
12413;DHT22;13877;18.896;-99.222;2023-02-03T02:53:21;21.90;35.80
12413;DHT22;13877;18.896;-99.222;2023-02-03T02:55:53;21.90;35.90
12413;DHT22;13877;18.896;-99.222;2023-02-03T02:58:22;21.90;35.90
12413;DHT22;13877;18.896;-99.222;2023-02-03T03:00:50;21.80;35.60
12413;DHT22;13877;18.896;-99.222;2023-02-03T03:03:20;21.90;35.50
12413;DHT22;13877;18.896;-99.222;2023-02-03T03:06:08;21.90;35.50
12413;DHT22;13877;18.896;-99.222;2023-02-03T03:11:10;21.70;35.80
12413;DHT22;13877;18.896;-99.222;2023-02-03T03:13:41;21.60;35.90
12413;DHT22;13877;18.896;-99.222;2023-02-03T03:16:10;21.60;36.00
12413;DHT22;13877;18.896;-99.222;2023-02-03T03:18:50;21.50;36.10
12413;DHT22;13877;18.896;-99.222;2023-02-03T03:21:28;21.60;36.10
12413;DHT22;13877;18.896;-99.222;2023-02-03T03:24:01;21.40;36.20
12413;DHT22;13877;18.896;-99.222;2023-02-03T03:29:25;21.40;36.40
12413;DHT22;13877;18.896;-99.222;2023-02-03T03:31:56;21.50;36.00
12413;DHT22;13877;18.896;-99.222;2023-02-03T03:34:23;21.50;35.90
12413;DHT22;13877;18.896;-99.222;2023-02-03T03:36:57;21.60;36.00
12413;DHT22;13877;18.896;-99.222;2023-02-03T03:42:28;21.50;35.90
12413;DHT22;13877;18.896;-99.222;2023-02-03T03:50:58;21.50;35.80
12413;DHT22;13877;18.896;-99.222;2023-02-03T03:53:28;21.40;35.80
12413;DHT22;13877;18.896;-99.222;2023-02-03T03:55:59;21.40;35.70
12413;DHT22;13877;18.896;-99.222;2023-02-03T03:58:31;21.40;35.60
12413;DHT22;13877;18.896;-99.222;2023-02-03T04:01:04;21.40;35.60
12413;DHT22;13877;18.896;-99.222;2023-02-03T04:03:37;21.40;35.60
12413;DHT22;13877;18.896;-99.222;2023-02-03T04:06:04;21.50;35.30
12413;DHT22;13877;18.896;-99.222;2023-02-03T04:08:31;21.50;35.20
12413;DHT22;13877;18.896;-99.222;2023-02-03T04:10:59;21.50;35.30
12413;DHT22;13877;18.896;-99.222;2023-02-03T04:13:26;21.50;35.00
12413;DHT22;13877;18.896;-99.222;2023-02-03T04:15:53;21.50;35.10
12413;DHT22;13877;18.896;-99.222;2023-02-03T04:18:20;21.50;34.70
12413;DHT22;13877;18.896;-99.222;2023-02-03T04:20:48;21.50;34.70
12413;DHT22;13877;18.896;-99.222;2023-02-03T04:23:17;21.50;34.30
12413;DHT22;13877;18.896;-99.222;2023-02-03T04:25:44;21.40;34.10
12413;DHT22;13877;18.896;-99.222;2023-02-03T04:28:11;21.40;33.70
12413;DHT22;13877;18.896;-99.222;2023-02-03T04:30:38;21.40;33.90
12413;DHT22;13877;18.896;-99.222;2023-02-03T04:33:05;21.30;33.30
12413;DHT22;13877;18.896;-99.222;2023-02-03T04:35:32;21.30;33.10
12413;DHT22;13877;18.896;-99.222;2023-02-03T04:37:58;21.20;33.00
12413;DHT22;13877;18.896;-99.222;2023-02-03T04:40:25;21.20;32.90
12413;DHT22;13877;18.896;-99.222;2023-02-03T04:42:52;21.20;32.70
12413;DHT22;13877;18.896;-99.222;2023-02-03T04:45:19;21.20;32.30
12413;DHT22;13877;18.896;-99.222;2023-02-03T04:47:51;21.20;32.10
12413;DHT22;13877;18.896;-99.222;2023-02-03T04:50:19;21.20;32.40
12413;DHT22;13877;18.896;-99.222;2023-02-03T04:52:46;21.10;32.20
12413;DHT22;13877;18.896;-99.222;2023-02-03T04:55:15;21.00;32.40
12413;DHT22;13877;18.896;-99.222;2023-02-03T04:57:42;20.90;32.60
12413;DHT22;13877;18.896;-99.222;2023-02-03T05:00:10;20.90;32.60
12413;DHT22;13877;18.896;-99.222;2023-02-03T05:02:37;20.70;33.00
12413;DHT22;13877;18.896;-99.222;2023-02-03T05:05:04;20.50;33.30
12413;DHT22;13877;18.896;-99.222;2023-02-03T05:07:31;20.30;33.30
12413;DHT22;13877;18.896;-99.222;2023-02-03T05:09:59;20.50;33.40
12413;DHT22;13877;18.896;-99.222;2023-02-03T05:12:26;20.50;33.60
12413;DHT22;13877;18.896;-99.222;2023-02-03T05:14:53;20.30;34.60
12413;DHT22;13877;18.896;-99.222;2023-02-03T05:17:20;20.20;35.40
12413;DHT22;13877;18.896;-99.222;2023-02-03T05:19:47;20.00;36.40
12413;DHT22;13877;18.896;-99.222;2023-02-03T05:22:14;19.80;37.40
12413;DHT22;13877;18.896;-99.222;2023-02-03T05:24:42;19.80;37.90
12413;DHT22;13877;18.896;-99.222;2023-02-03T05:27:10;19.90;37.70
12413;DHT22;13877;18.896;-99.222;2023-02-03T05:29:37;19.90;37.30
12413;DHT22;13877;18.896;-99.222;2023-02-03T05:32:04;19.60;37.60
12413;DHT22;13877;18.896;-99.222;2023-02-03T05:34:31;19.40;38.20
12413;DHT22;13877;18.896;-99.222;2023-02-03T05:36:58;19.80;37.70
12413;DHT22;13877;18.896;-99.222;2023-02-03T05:39:26;19.70;38.00
12413;DHT22;13877;18.896;-99.222;2023-02-03T05:41:52;19.50;38.90
12413;DHT22;13877;18.896;-99.222;2023-02-03T05:44:24;19.40;39.60
12413;DHT22;13877;18.896;-99.222;2023-02-03T05:46:55;19.40;39.60
12413;DHT22;13877;18.896;-99.222;2023-02-03T05:49:22;19.40;39.40
12413;DHT22;13877;18.896;-99.222;2023-02-03T05:51:50;19.40;39.10
12413;DHT22;13877;18.896;-99.222;2023-02-03T05:54:17;19.60;38.40
12413;DHT22;13877;18.896;-99.222;2023-02-03T05:56:45;19.70;38.00
12413;DHT22;13877;18.896;-99.222;2023-02-03T05:59:11;19.50;38.10
12413;DHT22;13877;18.896;-99.222;2023-02-03T06:01:39;19.40;38.60
12413;DHT22;13877;18.896;-99.222;2023-02-03T06:04:06;19.20;39.10
12413;DHT22;13877;18.896;-99.222;2023-02-03T06:06:33;19.20;39.30
12413;DHT22;13877;18.896;-99.222;2023-02-03T06:09:02;19.20;39.30
12413;DHT22;13877;18.896;-99.222;2023-02-03T06:11:31;19.30;38.90
12413;DHT22;13877;18.896;-99.222;2023-02-03T06:14:01;19.40;38.60
12413;DHT22;13877;18.896;-99.222;2023-02-03T06:16:28;19.30;38.70
12413;DHT22;13877;18.896;-99.222;2023-02-03T06:18:56;19.30;38.50
12413;DHT22;13877;18.896;-99.222;2023-02-03T06:21:43;19.30;38.60
12413;DHT22;13877;18.896;-99.222;2023-02-03T06:24:10;19.20;39.20
12413;DHT22;13877;18.896;-99.222;2023-02-03T06:26:37;19.40;38.70
12413;DHT22;13877;18.896;-99.222;2023-02-03T06:29:04;19.40;38.50
12413;DHT22;13877;18.896;-99.222;2023-02-03T06:31:31;19.40;38.20
12413;DHT22;13877;18.896;-99.222;2023-02-03T06:33:58;19.50;38.20
12413;DHT22;13877;18.896;-99.222;2023-02-03T06:36:27;19.50;38.10
12413;DHT22;13877;18.896;-99.222;2023-02-03T06:38:54;19.60;38.10
12413;DHT22;13877;18.896;-99.222;2023-02-03T06:41:22;19.50;37.70
12413;DHT22;13877;18.896;-99.222;2023-02-03T06:43:53;19.60;37.50
12413;DHT22;13877;18.896;-99.222;2023-02-03T06:46:20;19.80;37.20
12413;DHT22;13877;18.896;-99.222;2023-02-03T06:48:47;20.00;37.20
12413;DHT22;13877;18.896;-99.222;2023-02-03T06:51:14;19.80;37.10
12413;DHT22;13877;18.896;-99.222;2023-02-03T06:53:41;19.80;36.90
12413;DHT22;13877;18.896;-99.222;2023-02-03T06:56:08;19.70;36.80
12413;DHT22;13877;18.896;-99.222;2023-02-03T06:58:35;19.80;36.80
12413;DHT22;13877;18.896;-99.222;2023-02-03T07:01:02;19.70;36.90
12413;DHT22;13877;18.896;-99.222;2023-02-03T07:03:29;19.60;37.20
12413;DHT22;13877;18.896;-99.222;2023-02-03T07:05:55;19.50;37.00
12413;DHT22;13877;18.896;-99.222;2023-02-03T07:08:23;19.70;36.90
12413;DHT22;13877;18.896;-99.222;2023-02-03T07:10:54;19.60;36.60
12413;DHT22;13877;18.896;-99.222;2023-02-03T07:13:21;19.70;36.30
12413;DHT22;13877;18.896;-99.222;2023-02-03T07:15:48;19.70;36.60
12413;DHT22;13877;18.896;-99.222;2023-02-03T07:18:15;19.50;36.80
12413;DHT22;13877;18.896;-99.222;2023-02-03T07:20:44;19.50;37.00
12413;DHT22;13877;18.896;-99.222;2023-02-03T07:23:11;19.60;36.80
12413;DHT22;13877;18.896;-99.222;2023-02-03T07:25:38;19.60;36.80
12413;DHT22;13877;18.896;-99.222;2023-02-03T07:28:05;19.50;36.90
12413;DHT22;13877;18.896;-99.222;2023-02-03T07:30:31;19.30;37.40
12413;DHT22;13877;18.896;-99.222;2023-02-03T07:32:59;19.10;37.60
12413;DHT22;13877;18.896;-99.222;2023-02-03T07:35:26;19.20;38.00
12413;DHT22;13877;18.896;-99.222;2023-02-03T07:37:53;19.20;37.70
12413;DHT22;13877;18.896;-99.222;2023-02-03T07:40:20;19.00;37.80
12413;DHT22;13877;18.896;-99.222;2023-02-03T07:42:48;18.90;38.60
12413;DHT22;13877;18.896;-99.222;2023-02-03T07:45:16;18.90;38.20
12413;DHT22;13877;18.896;-99.222;2023-02-03T07:47:44;18.70;39.00
12413;DHT22;13877;18.896;-99.222;2023-02-03T07:50:11;18.70;39.00
12413;DHT22;13877;18.896;-99.222;2023-02-03T07:52:39;18.50;39.00
12413;DHT22;13877;18.896;-99.222;2023-02-03T07:55:07;18.40;39.20
12413;DHT22;13877;18.896;-99.222;2023-02-03T07:57:35;18.40;39.10
12413;DHT22;13877;18.896;-99.222;2023-02-03T08:00:03;18.50;38.80
12413;DHT22;13877;18.896;-99.222;2023-02-03T08:02:38;18.50;38.70
12413;DHT22;13877;18.896;-99.222;2023-02-03T08:05:05;18.60;38.40
12413;DHT22;13877;18.896;-99.222;2023-02-03T08:07:32;18.70;38.00
12413;DHT22;13877;18.896;-99.222;2023-02-03T08:10:00;18.50;38.00
12413;DHT22;13877;18.896;-99.222;2023-02-03T08:12:27;18.50;37.60
12413;DHT22;13877;18.896;-99.222;2023-02-03T08:14:54;18.70;37.60
12413;DHT22;13877;18.896;-99.222;2023-02-03T08:17:21;18.60;38.40
12413;DHT22;13877;18.896;-99.222;2023-02-03T08:19:50;18.70;37.20
12413;DHT22;13877;18.896;-99.222;2023-02-03T08:22:16;18.70;37.10
12413;DHT22;13877;18.896;-99.222;2023-02-03T08:24:47;18.80;36.80
12413;DHT22;13877;18.896;-99.222;2023-02-03T08:27:19;18.80;36.50
12413;DHT22;13877;18.896;-99.222;2023-02-03T08:29:47;18.80;36.40
12413;DHT22;13877;18.896;-99.222;2023-02-03T08:32:19;18.80;36.30
12413;DHT22;13877;18.896;-99.222;2023-02-03T08:34:49;18.60;36.30
12413;DHT22;13877;18.896;-99.222;2023-02-03T08:37:20;18.50;37.20
12413;DHT22;13877;18.896;-99.222;2023-02-03T08:39:49;18.50;37.10
12413;DHT22;13877;18.896;-99.222;2023-02-03T08:42:16;18.50;36.60
12413;DHT22;13877;18.896;-99.222;2023-02-03T08:44:44;18.70;36.90
12413;DHT22;13877;18.896;-99.222;2023-02-03T08:47:11;18.70;36.50
12413;DHT22;13877;18.896;-99.222;2023-02-03T08:49:38;18.70;36.40
12413;DHT22;13877;18.896;-99.222;2023-02-03T08:52:09;18.70;36.50
12413;DHT22;13877;18.896;-99.222;2023-02-03T08:54:38;18.60;37.00
12413;DHT22;13877;18.896;-99.222;2023-02-03T08:57:05;18.40;38.40
12413;DHT22;13877;18.896;-99.222;2023-02-03T08:59:34;18.20;41.20
12413;DHT22;13877;18.896;-99.222;2023-02-03T09:02:05;17.80;41.40
12413;DHT22;13877;18.896;-99.222;2023-02-03T09:04:33;17.50;42.00
12413;DHT22;13877;18.896;-99.222;2023-02-03T09:07:01;17.10;43.00
12413;DHT22;13877;18.896;-99.222;2023-02-03T09:09:30;16.90;41.90
12413;DHT22;13877;18.896;-99.222;2023-02-03T09:11:57;17.10;41.60
12413;DHT22;13877;18.896;-99.222;2023-02-03T09:14:31;17.10;42.00
12413;DHT22;13877;18.896;-99.222;2023-02-03T09:17:00;17.10;41.50
12413;DHT22;13877;18.896;-99.222;2023-02-03T09:19:29;17.30;41.40
12413;DHT22;13877;18.896;-99.222;2023-02-03T09:21:56;17.30;41.70
12413;DHT22;13877;18.896;-99.222;2023-02-03T09:24:25;17.30;41.60
12413;DHT22;13877;18.896;-99.222;2023-02-03T09:26:52;17.40;41.60
12413;DHT22;13877;18.896;-99.222;2023-02-03T09:29:21;17.20;41.60
12413;DHT22;13877;18.896;-99.222;2023-02-03T09:31:49;17.40;41.80
12413;DHT22;13877;18.896;-99.222;2023-02-03T09:34:20;17.30;41.80
12413;DHT22;13877;18.896;-99.222;2023-02-03T09:36:47;17.30;42.10
12413;DHT22;13877;18.896;-99.222;2023-02-03T09:39:14;17.20;42.20
12413;DHT22;13877;18.896;-99.222;2023-02-03T09:42:02;17.10;42.70
12413;DHT22;13877;18.896;-99.222;2023-02-03T09:45:00;17.00;43.60
12413;DHT22;13877;18.896;-99.222;2023-02-03T09:47:38;16.70;43.20
12413;DHT22;13877;18.896;-99.222;2023-02-03T09:50:21;16.60;43.80
12413;DHT22;13877;18.896;-99.222;2023-02-03T09:52:51;16.50;44.00
12413;DHT22;13877;18.896;-99.222;2023-02-03T09:58:16;16.70;44.20
12413;DHT22;13877;18.896;-99.222;2023-02-03T10:00:58;16.80;44.20
12413;DHT22;13877;18.896;-99.222;2023-02-03T10:09:12;16.90;44.30
12413;DHT22;13877;18.896;-99.222;2023-02-03T10:14:55;16.80;44.80
12413;DHT22;13877;18.896;-99.222;2023-02-03T10:17:31;16.70;44.90
12413;DHT22;13877;18.896;-99.222;2023-02-03T10:20:04;16.80;45.10
12413;DHT22;13877;18.896;-99.222;2023-02-03T10:22:53;16.70;45.20
12413;DHT22;13877;18.896;-99.222;2023-02-03T10:25:43;16.80;45.30
12413;DHT22;13877;18.896;-99.222;2023-02-03T10:28:18;16.80;45.10
12413;DHT22;13877;18.896;-99.222;2023-02-03T10:30:49;16.80;45.40
12413;DHT22;13877;18.896;-99.222;2023-02-03T10:33:18;16.70;45.70
12413;DHT22;13877;18.896;-99.222;2023-02-03T10:38:34;16.60;45.90
12413;DHT22;13877;18.896;-99.222;2023-02-03T10:41:04;16.50;46.10
12413;DHT22;13877;18.896;-99.222;2023-02-03T10:43:33;16.50;46.10
12413;DHT22;13877;18.896;-99.222;2023-02-03T10:46:14;16.40;46.10
12413;DHT22;13877;18.896;-99.222;2023-02-03T10:48:41;16.50;46.10
12413;DHT22;13877;18.896;-99.222;2023-02-03T10:51:33;16.40;46.20
12413;DHT22;13877;18.896;-99.222;2023-02-03T10:54:02;16.40;46.40
12413;DHT22;13877;18.896;-99.222;2023-02-03T10:56:31;16.40;46.30
12413;DHT22;13877;18.896;-99.222;2023-02-03T10:59:01;16.40;46.40
12413;DHT22;13877;18.896;-99.222;2023-02-03T11:01:42;16.40;46.40
12413;DHT22;13877;18.896;-99.222;2023-02-03T11:04:30;16.30;46.60
12413;DHT22;13877;18.896;-99.222;2023-02-03T11:07:02;16.50;46.50
12413;DHT22;13877;18.896;-99.222;2023-02-03T11:09:37;16.50;46.30
12413;DHT22;13877;18.896;-99.222;2023-02-03T11:12:18;16.50;46.40
12413;DHT22;13877;18.896;-99.222;2023-02-03T11:14:51;16.50;46.30
12413;DHT22;13877;18.896;-99.222;2023-02-03T11:17:23;16.40;46.40
12413;DHT22;13877;18.896;-99.222;2023-02-03T11:20:04;16.40;46.50
12413;DHT22;13877;18.896;-99.222;2023-02-03T11:22:40;16.40;46.40
12413;DHT22;13877;18.896;-99.222;2023-02-03T11:25:19;16.40;46.60
12413;DHT22;13877;18.896;-99.222;2023-02-03T11:27:52;16.30;46.80
12413;DHT22;13877;18.896;-99.222;2023-02-03T11:30:25;16.30;47.20
12413;DHT22;13877;18.896;-99.222;2023-02-03T11:32:56;16.20;47.30
12413;DHT22;13877;18.896;-99.222;2023-02-03T11:35:27;16.10;47.60
12413;DHT22;13877;18.896;-99.222;2023-02-03T11:37:59;16.20;47.50
12413;DHT22;13877;18.896;-99.222;2023-02-03T11:40:32;16.10;47.60
12413;DHT22;13877;18.896;-99.222;2023-02-03T11:43:15;16.10;48.10
12413;DHT22;13877;18.896;-99.222;2023-02-03T11:45:45;16.00;48.20
12413;DHT22;13877;18.896;-99.222;2023-02-03T11:53:54;15.70;49.40
12413;DHT22;13877;18.896;-99.222;2023-02-03T11:59:25;15.60;49.60
12413;DHT22;13877;18.896;-99.222;2023-02-03T12:02:22;15.70;49.80
12413;DHT22;13877;18.896;-99.222;2023-02-03T12:10:54;15.90;49.10
12413;DHT22;13877;18.896;-99.222;2023-02-03T12:30:46;15.90;49.60
12413;DHT22;13877;18.896;-99.222;2023-02-03T12:33:37;16.00;49.50
12413;DHT22;13877;18.896;-99.222;2023-02-03T12:36:22;15.90;49.70
12413;DHT22;13877;18.896;-99.222;2023-02-03T12:38:54;15.80;49.80
12413;DHT22;13877;18.896;-99.222;2023-02-03T12:41:29;15.70;50.10
12413;DHT22;13877;18.896;-99.222;2023-02-03T12:44:36;15.70;50.40
12413;DHT22;13877;18.896;-99.222;2023-02-03T12:47:01;15.50;50.60
12413;DHT22;13877;18.896;-99.222;2023-02-03T12:54:53;15.50;51.10
12413;DHT22;13877;18.896;-99.222;2023-02-03T12:57:31;15.50;51.10
12413;DHT22;13877;18.896;-99.222;2023-02-03T13:03:14;15.60;50.80
12413;DHT22;13877;18.896;-99.222;2023-02-03T13:16:57;15.50;51.50
12413;DHT22;13877;18.896;-99.222;2023-02-03T13:19:30;15.50;51.70
12413;DHT22;13877;18.896;-99.222;2023-02-03T13:22:04;15.60;51.50
12413;DHT22;13877;18.896;-99.222;2023-02-03T13:24:35;15.70;51.20
12413;DHT22;13877;18.896;-99.222;2023-02-03T13:39:19;15.90;50.50
12413;DHT22;13877;18.896;-99.222;2023-02-03T13:41:53;16.00;50.40
12413;DHT22;13877;18.896;-99.222;2023-02-03T13:44:27;16.10;50.20
12413;DHT22;13877;18.896;-99.222;2023-02-03T13:46:56;16.20;49.80
12413;DHT22;13877;18.896;-99.222;2023-02-03T13:49:27;16.20;49.50
12413;DHT22;13877;18.896;-99.222;2023-02-03T13:51:55;16.40;49.30
12413;DHT22;13877;18.896;-99.222;2023-02-03T13:57:02;16.60;48.90
12413;DHT22;13877;18.896;-99.222;2023-02-03T14:07:33;17.20;47.20
12413;DHT22;13877;18.896;-99.222;2023-02-03T14:10:20;17.50;46.40
12413;DHT22;13877;18.896;-99.222;2023-02-03T14:25:51;18.80;44.30
12413;DHT22;13877;18.896;-99.222;2023-02-03T14:28:25;18.90;43.60
12413;DHT22;13877;18.896;-99.222;2023-02-03T14:31:10;19.00;43.60
12413;DHT22;13877;18.896;-99.222;2023-02-03T14:47:55;20.10;42.10
12413;DHT22;13877;18.896;-99.222;2023-02-03T14:59:49;20.90;40.60
12413;DHT22;13877;18.896;-99.222;2023-02-03T15:02:23;21.10;40.20
12413;DHT22;13877;18.896;-99.222;2023-02-03T15:07:43;21.10;40.10
12413;DHT22;13877;18.896;-99.222;2023-02-03T15:10:16;21.20;39.90
12413;DHT22;13877;18.896;-99.222;2023-02-03T15:12:52;21.40;39.70
12413;DHT22;13877;18.896;-99.222;2023-02-03T15:15:25;21.50;38.70
12413;DHT22;13877;18.896;-99.222;2023-02-03T15:17:56;21.60;38.50
12413;DHT22;13877;18.896;-99.222;2023-02-03T15:20:29;21.70;38.90
12413;DHT22;13877;18.896;-99.222;2023-02-03T15:22:58;21.80;38.50
12413;DHT22;13877;18.896;-99.222;2023-02-03T15:25:27;21.90;38.30
12413;DHT22;13877;18.896;-99.222;2023-02-03T15:28:09;22.00;37.80
12413;DHT22;13877;18.896;-99.222;2023-02-03T15:30:38;22.10;37.60
12413;DHT22;13877;18.896;-99.222;2023-02-03T15:33:16;22.40;37.20
12413;DHT22;13877;18.896;-99.222;2023-02-03T15:35:52;22.30;37.10
12413;DHT22;13877;18.896;-99.222;2023-02-03T15:38:30;22.30;37.50
12413;DHT22;13877;18.896;-99.222;2023-02-03T15:41:05;22.30;36.80
12413;DHT22;13877;18.896;-99.222;2023-02-03T15:43:39;22.40;37.60
12413;DHT22;13877;18.896;-99.222;2023-02-03T15:46:29;22.60;37.20
12413;DHT22;13877;18.896;-99.222;2023-02-03T15:49:19;22.80;36.60
12413;DHT22;13877;18.896;-99.222;2023-02-03T15:52:06;22.70;36.50
12413;DHT22;13877;18.896;-99.222;2023-02-03T15:54:37;22.90;36.10
12413;DHT22;13877;18.896;-99.222;2023-02-03T15:57:16;23.10;35.90
12413;DHT22;13877;18.896;-99.222;2023-02-03T16:00:10;23.20;35.10
12413;DHT22;13877;18.896;-99.222;2023-02-03T16:02:44;23.40;34.90
12413;DHT22;13877;18.896;-99.222;2023-02-03T16:07:45;23.90;34.40
12413;DHT22;13877;18.896;-99.222;2023-02-03T16:10:32;23.80;33.90
12413;DHT22;13877;18.896;-99.222;2023-02-03T16:13:23;23.80;34.10
12413;DHT22;13877;18.896;-99.222;2023-02-03T16:16:05;23.50;34.20
12413;DHT22;13877;18.896;-99.222;2023-02-03T16:18:36;23.80;34.10
12413;DHT22;13877;18.896;-99.222;2023-02-03T16:21:20;23.90;33.90
12413;DHT22;13877;18.896;-99.222;2023-02-03T16:23:49;24.10;33.40
12413;DHT22;13877;18.896;-99.222;2023-02-03T16:26:18;24.50;32.20
12413;DHT22;13877;18.896;-99.222;2023-02-03T16:29:03;24.40;32.20
12413;DHT22;13877;18.896;-99.222;2023-02-03T16:31:55;24.50;32.60
12413;DHT22;13877;18.896;-99.222;2023-02-03T16:34:40;24.40;33.20
12413;DHT22;13877;18.896;-99.222;2023-02-03T16:37:32;24.40;32.50
12413;DHT22;13877;18.896;-99.222;2023-02-03T16:40:23;24.30;32.50
12413;DHT22;13877;18.896;-99.222;2023-02-03T16:43:13;24.70;32.20
12413;DHT22;13877;18.896;-99.222;2023-02-03T16:46:00;24.40;30.90
12413;DHT22;13877;18.896;-99.222;2023-02-03T16:48:45;24.80;32.00
12413;DHT22;13877;18.896;-99.222;2023-02-03T16:51:38;24.60;32.40
12413;DHT22;13877;18.896;-99.222;2023-02-03T16:54:08;25.20;32.20
12413;DHT22;13877;18.896;-99.222;2023-02-03T16:56:36;25.20;31.70
12413;DHT22;13877;18.896;-99.222;2023-02-03T16:59:04;25.10;31.10
12413;DHT22;13877;18.896;-99.222;2023-02-03T17:01:32;24.20;32.30
12413;DHT22;13877;18.896;-99.222;2023-02-03T17:03:59;24.40;31.40
12413;DHT22;13877;18.896;-99.222;2023-02-03T17:06:26;25.00;31.60
12413;DHT22;13877;18.896;-99.222;2023-02-03T17:08:53;25.20;31.00
12413;DHT22;13877;18.896;-99.222;2023-02-03T17:11:22;25.40;30.40
12413;DHT22;13877;18.896;-99.222;2023-02-03T17:13:49;25.40;30.60
12413;DHT22;13877;18.896;-99.222;2023-02-03T17:16:20;25.20;30.00
12413;DHT22;13877;18.896;-99.222;2023-02-03T17:18:49;25.40;31.00
12413;DHT22;13877;18.896;-99.222;2023-02-03T17:21:20;25.10;30.80
12413;DHT22;13877;18.896;-99.222;2023-02-03T17:23:47;26.00;30.00
12413;DHT22;13877;18.896;-99.222;2023-02-03T17:26:14;26.10;30.50
12413;DHT22;13877;18.896;-99.222;2023-02-03T17:28:41;26.20;28.60
12413;DHT22;13877;18.896;-99.222;2023-02-03T17:31:14;26.10;29.10
12413;DHT22;13877;18.896;-99.222;2023-02-03T17:33:42;26.40;29.30
12413;DHT22;13877;18.896;-99.222;2023-02-03T17:36:14;26.00;29.70
12413;DHT22;13877;18.896;-99.222;2023-02-03T17:38:53;26.50;29.40
12413;DHT22;13877;18.896;-99.222;2023-02-03T17:41:24;27.00;29.10
12413;DHT22;13877;18.896;-99.222;2023-02-03T17:43:53;27.00;27.70
12413;DHT22;13877;18.896;-99.222;2023-02-03T17:46:22;26.90;28.80
12413;DHT22;13877;18.896;-99.222;2023-02-03T17:48:49;26.50;28.00
12413;DHT22;13877;18.896;-99.222;2023-02-03T17:51:21;26.70;28.60
12413;DHT22;13877;18.896;-99.222;2023-02-03T17:53:51;26.20;29.10
12413;DHT22;13877;18.896;-99.222;2023-02-03T17:56:22;26.60;28.70
12413;DHT22;13877;18.896;-99.222;2023-02-03T17:58:58;27.40;27.30
12413;DHT22;13877;18.896;-99.222;2023-02-03T18:01:26;27.10;28.20
12413;DHT22;13877;18.896;-99.222;2023-02-03T18:03:58;27.40;28.70
12413;DHT22;13877;18.896;-99.222;2023-02-03T18:06:27;27.50;27.90
12413;DHT22;13877;18.896;-99.222;2023-02-03T18:08:55;27.30;27.70
12413;DHT22;13877;18.896;-99.222;2023-02-03T18:11:28;26.80;27.60
12413;DHT22;13877;18.896;-99.222;2023-02-03T18:13:56;27.30;27.70